Time;durP1;ratioP1;P1;durP2;ratioP2;P2;SDS_P1;SDS_P2;PMS_P1;PMS_P2;Temp;Humidity;BMP_temperature;BMP_pressure;BME280_temperature;BME280_humidity;BME280_pressure;Samples;Min_cycle;Max_cycle;Signal;HPM_P1;HPM_P2
2023/07/21 00:02:20;;;;;;;4.07;1.52;;;;;;;19.48;47.51;96149.72;4978330;28;20042;-70
2023/07/21 00:04:45;;;;;;;7.28;2.00;;;;;;;19.43;47.79;96135.59;4983992;28;20042;-72
2023/07/21 00:07:11;;;;;;;3.10;1.67;;;;;;;19.48;47.98;96140.59;4981724;28;20050;-71
2023/07/21 00:09:36;;;;;;;3.60;1.60;;;;;;;19.55;47.82;96147.97;4984275;28;20081;-71
2023/07/21 00:12:03;;;;;;;7.05;1.88;;;;;;;19.50;47.51;96143.72;4982567;28;20093;-69
2023/07/21 00:14:29;;;;;;;5.22;1.65;;;;;;;19.54;47.71;96149.97;4981699;28;20038;-70
2023/07/21 00:16:55;;;;;;;3.42;1.58;;;;;;;19.58;47.38;96147.09;4983680;28;20069;-70
2023/07/21 00:19:21;;;;;;;3.17;1.50;;;;;;;19.64;46.54;96148.88;4978700;28;20046;-70
2023/07/21 00:21:46;;;;;;;6.72;1.73;;;;;;;19.68;46.38;96155.13;4984134;28;20411;-69
2023/07/21 00:24:13;;;;;;;4.18;2.00;;;;;;;19.69;45.80;96155.88;4976065;28;20104;-70
2023/07/21 00:26:38;;;;;;;7.45;1.80;;;;;;;19.70;46.16;96156.66;4983219;28;20038;-70
2023/07/21 00:29:04;;;;;;;5.78;1.80;;;;;;;19.71;45.88;96152.69;4978805;28;20045;-69
2023/07/21 00:31:29;;;;;;;6.35;1.85;;;;;;;19.71;45.85;96141.56;4982743;28;20049;-70
2023/07/21 00:33:55;;;;;;;3.17;1.70;;;;;;;19.64;45.95;96140.56;4982955;28;20081;-70
2023/07/21 00:36:20;;;;;;;4.75;1.80;;;;;;;19.64;45.54;96137.78;4959272;28;20180;-70
2023/07/21 00:38:47;;;;;;;3.70;1.38;;;;;;;19.68;44.99;96143.22;4982985;28;20034;-71
2023/07/21 00:41:13;;;;;;;4.45;1.77;;;;;;;19.63;44.59;96138.22;4977230;28;20038;-71
2023/07/21 00:43:38;;;;;;;9.18;1.90;;;;;;;19.51;45.44;96139.72;4983245;28;20050;-71
2023/07/21 00:46:04;;;;;;;4.28;1.40;;;;;;;19.45;45.64;96141.50;4978620;28;20038;-69
2023/07/21 00:48:31;;;;;;;4.15;1.50;;;;;;;19.44;45.60;96135.13;4983361;28;20386;-71
2023/07/21 00:50:56;;;;;;;3.38;1.58;;;;;;;19.51;44.97;96136.19;4984143;28;20105;-71
2023/07/21 00:53:23;;;;;;;4.50;1.40;;;;;;;19.42;45.68;96134.81;4978114;28;20058;-70
2023/07/21 00:55:50;;;;;;;3.22;1.50;;;;;;;19.29;46.16;96128.44;4982917;28;20136;-70
2023/07/21 00:58:17;;;;;;;5.30;1.92;;;;;;;19.16;46.81;96120.06;4979031;28;20491;-71
2023/07/21 01:00:43;;;;;;;5.07;2.05;;;;;;;19.08;46.93;96118.69;4980766;28;20137;-70
2023/07/21 01:03:11;;;;;;;6.00;1.55;;;;;;;18.96;47.57;96105.50;4956502;28;20491;-69
2023/07/21 01:05:41;;;;;;;8.30;1.60;;;;;;;18.96;47.39;96122.16;4982992;28;20074;-69
2023/07/21 01:08:08;;;;;;;3.60;1.63;;;;;;;18.93;47.32;96112.72;4977411;28;20053;-69
2023/07/21 01:10:35;;;;;;;3.28;1.83;;;;;;;18.91;47.25;96118.72;4982200;28;20609;-69
2023/07/21 01:13:02;;;;;;;7.55;2.70;;;;;;;18.88;47.79;96116.78;4982776;28;20103;-70
2023/07/21 01:15:29;;;;;;;4.40;1.90;;;;;;;18.87;47.75;96111.69;4979732;28;20038;-69
2023/07/21 01:17:56;;;;;;;3.63;1.60;;;;;;;18.81;48.02;96122.53;4983220;28;20046;-69
2023/07/21 01:20:24;;;;;;;3.10;1.50;;;;;;;18.84;48.35;96123.66;4982085;28;20353;-70
2023/07/21 01:22:57;;;;;;;3.08;1.58;;;;;;;18.84;48.85;96123.66;4990744;28;20054;-69
2023/07/21 01:25:24;;;;;;;3.13;1.58;;;;;;;19.02;49.02;96125.97;4994326;28;20054;-71
2023/07/21 01:27:53;;;;;;;3.17;1.50;;;;;;;19.07;48.59;96140.09;4982877;28;20054;-70
2023/07/21 01:30:19;;;;;;;6.82;1.80;;;;;;;19.33;47.80;96156.09;4976744;28;20069;-69
2023/07/21 01:32:46;;;;;;;6.00;1.65;;;;;;;19.52;48.64;96171.03;4981180;28;20112;-70
2023/07/21 01:35:15;;;;;;;5.80;1.55;;;;;;;19.47;49.17;96177.94;4977574;28;20041;-69
2023/07/21 01:37:43;;;;;;;4.15;1.80;;;;;;;19.42;49.88;96148.69;4974084;28;20445;-70
2023/07/21 01:40:15;;;;;;;5.50;1.70;;;;;;;19.35;49.35;96142.56;4978154;28;20042;-70
2023/07/21 01:42:42;;;;;;;4.45;1.60;;;;;;;19.24;50.04;96142.84;4964433;28;20046;-70
2023/07/21 01:45:08;;;;;;;5.97;2.10;;;;;;;19.18;50.51;96139.06;4976983;28;20042;-70
2023/07/21 01:47:34;;;;;;;2.50;1.52;;;;;;;19.16;50.67;96130.34;4964810;28;20048;-70
2023/07/21 01:50:00;;;;;;;4.38;1.80;;;;;;;19.12;50.98;96124.91;4983273;28;20043;-70
2023/07/21 01:52:30;;;;;;;3.10;1.80;;;;;;;19.19;50.92;96119.16;4990330;28;20045;-69
2023/07/21 01:55:06;;;;;;;6.15;1.75;;;;;;;18.76;51.75;96117.47;4996573;28;20046;-70
2023/07/21 01:57:37;;;;;;;5.18;2.17;;;;;;;18.48;52.82;96113.44;4985483;28;20049;-70
2023/07/21 02:00:10;;;;;;;3.10;1.73;;;;;;;18.45;53.40;96115.06;4984116;28;20073;-69
2023/07/21 02:02:36;;;;;;;3.03;1.73;;;;;;;18.58;53.66;96108.81;4985589;28;20058;-70
2023/07/21 02:05:05;;;;;;;3.47;1.70;;;;;;;18.60;53.60;96104.41;4984453;28;20438;-69
2023/07/21 02:07:31;;;;;;;4.32;1.67;;;;;;;18.55;53.93;96091.06;4985645;28;20105;-70
2023/07/21 02:09:58;;;;;;;3.58;1.70;;;;;;;18.19;54.60;96093.94;4985445;28;20049;-70
2023/07/21 02:12:23;;;;;;;4.88;1.70;;;;;;;17.78;56.40;96080.13;4980860;28;20504;-70
2023/07/21 02:14:49;;;;;;;3.63;1.85;;;;;;;17.53;59.03;96072.38;4985736;28;20046;-70
2023/07/21 02:17:14;;;;;;;3.17;1.63;;;;;;;17.43;59.81;96072.59;4981115;28;20045;-70
2023/07/21 02:19:39;;;;;;;3.20;1.60;;;;;;;17.62;59.53;96065.47;4984944;28;20038;-69
2023/07/21 02:22:05;;;;;;;5.10;1.80;;;;;;;17.61;59.59;96070.25;4978948;28;20077;-71
2023/07/21 02:24:31;;;;;;;5.35;2.05;;;;;;;17.73;57.35;96077.88;4985623;28;20070;-71
2023/07/21 02:26:56;;;;;;;4.13;1.73;;;;;;;17.71;57.95;96085.81;4984610;28;20034;-69
2023/07/21 02:29:21;;;;;;;3.22;1.58;;;;;;;17.68;58.72;96080.38;4979793;28;20522;-71
2023/07/21 02:31:49;;;;;;;3.70;1.85;;;;;;;17.84;59.42;96087.94;4985901;28;20812;-70
2023/07/21 02:34:14;;;;;;;4.00;1.90;;;;;;;17.82;59.44;96101.44;4979759;28;20121;-70
2023/07/21 02:36:40;;;;;;;3.90;1.65;;;;;;;17.78;60.68;96098.75;4984532;28;20546;-70
2023/07/21 02:39:05;;;;;;;4.78;1.63;;;;;;;17.98;60.69;96104.28;4981241;28;20121;-70
2023/07/21 02:41:30;;;;;;;4.78;1.95;;;;;;;18.06;60.07;96110.44;4982627;28;20034;-70
2023/07/21 02:43:56;;;;;;;4.22;2.05;;;;;;;17.87;60.61;96123.91;4984453;28;20403;-69
2023/07/21 02:46:21;;;;;;;7.60;2.42;;;;;;;17.58;66.21;96140.31;4980689;28;21665;-71
2023/07/21 02:48:47;;;;;;;6.10;2.20;;;;;;;17.53;71.22;96155.41;4986179;28;20046;-71
2023/07/21 02:51:12;;;;;;;8.55;1.90;;;;;;;17.72;71.64;96158.63;4979937;28;20548;-71
2023/07/21 02:53:37;;;;;;;19.00;5.18;;;;;;;17.34;82.90;96153.41;4983892;28;20049;-70
2023/07/21 02:56:03;;;;;;;12.30;3.28;;;;;;;17.29;84.75;96163.00;4981433;28;20050;-71
2023/07/21 02:58:30;;;;;;;10.45;3.28;;;;;;;16.74;93.66;96154.06;4981696;28;20062;-70
2023/07/21 03:00:57;;;;;;;7.10;3.05;;;;;;;16.24;94.58;96128.00;4984760;28;20065;-71
2023/07/21 03:03:25;;;;;;;12.98;2.90;;;;;;;15.95;96.75;96111.03;4961516;28;20596;-71
2023/07/21 03:05:51;;;;;;;10.88;3.22;;;;;;;14.87;100.00;96101.31;4964298;28;20396;-71
2023/07/21 03:08:26;;;;;;;5.57;3.13;;;;;;;14.81;100.00;96099.41;4981292;28;20046;-71
2023/07/21 03:11:01;;;;;;;8.25;3.50;;;;;;;14.88;100.00;96102.09;4985043;28;20379;-70
2023/07/21 03:13:26;;;;;;;7.35;2.90;;;;;;;14.90;100.00;96110.72;4979647;28;20042;-70
2023/07/21 03:15:52;;;;;;;5.45;2.72;;;;;;;14.96;100.00;96111.06;4984474;28;20482;-70
2023/07/21 03:18:17;;;;;;;11.80;3.55;;;;;;;14.81;100.00;96108.44;4964206;28;20042;-71
2023/07/21 03:20:43;;;;;;;7.57;3.08;;;;;;;14.99;100.00;96104.72;4967011;28;20073;-70
2023/07/21 03:23:09;;;;;;;6.47;3.10;;;;;;;15.38;100.00;96098.75;4977394;28;20526;-71
2023/07/21 03:25:34;;;;;;;9.40;2.97;;;;;;;15.55;100.00;96101.72;4984175;28;20042;-70
2023/07/21 03:28:02;;;;;;;7.60;3.03;;;;;;;15.61;100.00;96100.03;4966880;28;20085;-70
2023/07/21 03:30:28;;;;;;;9.82;3.08;;;;;;;15.57;100.00;96107.59;4982779;28;20372;-72
2023/07/21 03:32:53;;;;;;;6.28;2.90;;;;;;;15.47;100.00;96112.06;4982995;28;20061;-72
2023/07/21 03:35:19;;;;;;;5.50;2.95;;;;;;;15.47;100.00;96107.31;4978528;28;20085;-69
2023/07/21 03:37:44;;;;;;;7.03;3.28;;;;;;;15.55;100.00;96112.75;4984072;28;20045;-69
2023/07/21 03:40:10;;;;;;;7.75;2.75;;;;;;;15.50;100.00;96116.75;4978575;28;20526;-69
2023/07/21 03:42:36;;;;;;;5.97;2.90;;;;;;;15.51;100.00;96114.78;4982258;28;20047;-70
2023/07/21 03:45:05;;;;;;;10.88;3.55;;;;;;;15.26;100.00;96122.16;4982804;28;20061;-70
2023/07/21 03:47:31;;;;;;;13.35;3.00;;;;;;;15.10;100.00;96122.72;4983981;28;20074;-70
2023/07/21 03:49:58;;;;;;;8.32;3.17;;;;;;;15.01;100.00;96124.41;4973354;28;20101;-70
2023/07/21 03:52:23;;;;;;;9.00;3.25;;;;;;;15.18;100.00;96117.91;4959947;28;20393;-71
2023/07/21 03:54:48;;;;;;;8.68;3.10;;;;;;;15.09;100.00;96120.38;4963822;28;20134;-70
2023/07/21 03:57:14;;;;;;;9.88;3.20;;;;;;;14.88;100.00;96119.41;4959921;28;20050;-71
2023/07/21 03:59:41;;;;;;;6.78;3.00;;;;;;;14.99;100.00;96107.47;4964270;28;20556;-70
2023/07/21 04:02:07;;;;;;;15.43;3.85;;;;;;;15.02;100.00;96106.66;4957666;28;20058;-70
2023/07/21 04:04:33;;;;;;;6.20;3.42;;;;;;;14.90;100.00;96110.72;4964262;28;20062;-71
2023/07/21 04:07:05;;;;;;;10.20;3.85;;;;;;;15.00;100.00;96109.03;4962944;28;20039;-71
2023/07/21 04:09:31;;;;;;;6.55;3.13;;;;;;;15.01;100.00;96103.13;4963424;28;20043;-69
2023/07/21 04:11:57;;;;;;;6.68;3.30;;;;;;;14.77;100.00;96106.91;4974801;28;20039;-70
2023/07/21 04:14:22;;;;;;;9.48;3.85;;;;;;;14.44;100.00;96103.63;4977650;28;20944;-71
2023/07/21 04:16:48;;;;;;;6.13;3.00;;;;;;;14.49;100.00;96101.22;4982930;28;20084;-71
2023/07/21 04:19:13;;;;;;;9.02;3.38;;;;;;;14.48;100.00;96102.41;4959425;28;20495;-71
2023/07/21 04:21:39;;;;;;;6.43;3.80;;;;;;;14.28;100.00;96106.91;4955653;28;20138;-69
2023/07/21 04:24:04;;;;;;;8.45;4.00;;;;;;;13.93;100.00;96106.75;4978410;28;20064;-71
2023/07/21 04:26:29;;;;;;;9.25;4.30;;;;;;;13.50;100.00;96104.22;4982476;28;20046;-70
2023/07/21 04:28:55;;;;;;;9.15;4.25;;;;;;;13.60;100.00;96099.88;4983329;28;20043;-71
2023/07/21 04:31:22;;;;;;;8.65;4.53;;;;;;;13.43;100.00;96097.97;4978142;28;20054;-70
2023/07/21 04:33:49;;;;;;;7.60;4.22;;;;;;;13.43;100.00;96100.72;4982846;28;20042;-71
2023/07/21 04:36:14;;;;;;;9.50;4.57;;;;;;;13.35;100.00;96095.25;4978493;28;20853;-71
2023/07/21 04:38:47;;;;;;;10.20;4.50;;;;;;;13.44;100.00;96092.09;5028888;28;20417;-71
2023/07/21 04:41:13;;;;;;;10.00;4.38;;;;;;;13.50;100.00;96104.22;5008607;28;20144;-71
2023/07/21 04:43:38;;;;;;;7.32;3.85;;;;;;;13.82;100.00;96102.50;5005686;28;20126;-70
2023/07/21 04:46:04;;;;;;;6.82;3.95;;;;;;;13.78;100.00;96110.78;4983906;28;20069;-71
2023/07/21 04:48:29;;;;;;;8.65;4.35;;;;;;;14.14;100.00;96113.31;5010677;28;20038;-70
2023/07/21 04:50:56;;;;;;;9.68;4.22;;;;;;;14.12;100.00;96119.22;5003678;28;20498;-70
2023/07/21 04:53:22;;;;;;;8.25;4.22;;;;;;;14.31;100.00;96119.88;4994120;28;20132;-70
2023/07/21 04:55:49;;;;;;;6.95;4.18;;;;;;;14.36;100.00;96104.88;5000030;28;20080;-73
2023/07/21 04:58:14;;;;;;;7.38;3.83;;;;;;;14.38;100.00;96121.78;4992649;28;20045;-73
2023/07/21 05:00:39;;;;;;;6.95;3.75;;;;;;;14.62;100.00;96109.00;4998596;28;20046;-72
2023/07/21 05:03:05;;;;;;;8.70;3.83;;;;;;;14.86;100.00;96116.28;4993419;28;20046;-74
2023/07/21 05:05:32;;;;;;;7.53;3.72;;;;;;;15.45;100.00;96109.72;4998881;28;20119;-75
2023/07/21 05:07:59;;;;;;;7.07;3.65;;;;;;;16.17;100.00;96114.28;4999101;28;20038;-74
2023/07/21 05:10:25;;;;;;;7.57;3.00;;;;;;;17.17;100.00;96105.53;4993726;28;20076;-74
2023/07/21 05:12:51;;;;;;;7.22;3.42;;;;;;;17.62;100.00;96107.00;5004377;28;20022;-73
2023/07/21 05:15:16;;;;;;;5.70;2.40;;;;;;;18.39;100.00;96102.16;5017271;28;20046;-72
2023/07/21 05:17:41;;;;;;;6.78;3.03;;;;;;;17.71;100.00;96099.69;5008203;28;20133;-72
2023/07/21 05:20:07;;;;;;;6.47;2.75;;;;;;;17.58;100.00;96090.47;4993612;28;20050;-71
2023/07/21 05:22:33;;;;;;;5.07;3.30;;;;;;;16.21;100.00;96092.91;4997501;28;20046;-72
2023/07/21 05:24:59;;;;;;;6.90;3.15;;;;;;;17.10;100.00;96095.34;4998412;28;20054;-72
2023/07/21 05:27:24;;;;;;;4.32;2.95;;;;;;;17.27;100.00;96098.22;5013058;28;20098;-72
2023/07/21 05:29:50;;;;;;;4.60;2.80;;;;;;;18.78;100.00;96109.53;5018008;28;20038;-72
2023/07/21 05:32:15;;;;;;;6.32;2.80;;;;;;;20.22;95.50;96113.84;5012654;28;20037;-73
2023/07/21 05:34:42;;;;;;;7.32;2.40;;;;;;;20.76;86.69;96120.50;5018222;28;20038;-73
2023/07/21 05:37:10;;;;;;;5.38;2.20;;;;;;;20.64;86.16;96113.75;5014011;28;20045;-73
2023/07/21 05:39:36;;;;;;;4.53;2.30;;;;;;;20.39;89.37;96108.97;5009504;28;20473;-74
2023/07/21 05:42:03;;;;;;;6.45;2.40;;;;;;;20.26;88.05;96114.53;5019334;28;20169;-74
2023/07/21 05:44:30;;;;;;;7.80;2.95;;;;;;;20.33;90.78;96119.88;5016322;28;20145;-74
2023/07/21 05:46:55;;;;;;;6.00;3.00;;;;;;;20.30;92.52;96114.44;5036098;28;20101;-75
2023/07/21 05:49:21;;;;;;;6.13;3.08;;;;;;;20.31;94.05;96111.19;5012869;28;20038;-75
2023/07/21 05:51:48;;;;;;;9.68;2.95;;;;;;;20.21;96.87;96121.41;5004976;28;20073;-74
2023/07/21 05:54:13;;;;;;;7.45;2.75;;;;;;;20.01;97.57;96126.44;4997899;28;20388;-73
2023/07/21 05:56:39;;;;;;;10.38;3.20;;;;;;;19.94;100.00;96127.41;5004387;28;20045;-73
2023/07/21 05:59:04;;;;;;;5.45;3.33;;;;;;;19.96;98.49;96127.75;4999555;28;20502;-74
2023/07/21 06:01:30;;;;;;;7.40;2.95;;;;;;;19.94;99.16;96132.19;5003734;28;20108;-74
2023/07/21 06:03:56;;;;;;;8.93;3.28;;;;;;;19.72;98.52;96134.78;5004086;28;20586;-74
2023/07/21 06:06:23;;;;;;;5.03;2.78;;;;;;;19.65;100.00;96135.78;4999556;28;20156;-73
2023/07/21 06:08:48;;;;;;;7.57;3.10;;;;;;;19.56;100.00;96138.41;5003340;28;20088;-74
2023/07/21 06:11:13;;;;;;;7.82;3.88;;;;;;;19.43;100.00;96132.81;4999474;28;20091;-74
2023/07/21 06:13:39;;;;;;;9.45;3.38;;;;;;;19.53;100.00;96137.28;5003245;28;20054;-74
2023/07/21 06:16:04;;;;;;;8.13;3.20;;;;;;;19.55;100.00;96142.41;4997595;28;20045;-75
2023/07/21 06:18:30;;;;;;;7.35;3.20;;;;;;;19.52;100.00;96146.06;5003516;28;20107;-75
2023/07/21 06:20:55;;;;;;;8.82;2.80;;;;;;;19.54;100.00;96149.97;5006351;28;20041;-74
2023/07/21 06:23:22;;;;;;;6.38;3.05;;;;;;;19.45;100.00;96138.72;4999655;28;20033;-75
2023/07/21 06:25:47;;;;;;;5.75;2.58;;;;;;;19.37;100.00;96142.91;5004770;28;20042;-74
2023/07/21 06:28:13;;;;;;;6.97;2.90;;;;;;;19.29;100.00;96129.22;4999776;28;20057;-74
2023/07/21 06:30:38;;;;;;;6.22;2.55;;;;;;;19.28;100.00;96141.53;5004034;28;20045;-74
2023/07/21 06:33:05;;;;;;;6.20;2.40;;;;;;;19.25;100.00;96147.19;4999400;28;20084;-75
2023/07/21 06:35:31;;;;;;;7.13;2.55;;;;;;;19.26;100.00;96162.63;5018881;28;20045;-75
2023/07/21 06:37:57;;;;;;;4.93;2.60;;;;;;;19.03;100.00;96163.59;5003545;28;20045;-75
2023/07/21 06:40:23;;;;;;;5.43;2.60;;;;;;;18.97;100.00;96170.91;4991095;28;20150;-75
2023/07/21 06:42:49;;;;;;;7.15;2.95;;;;;;;18.86;100.00;96177.50;5003523;28;20042;-75
2023/07/21 06:45:15;;;;;;;3.80;2.40;;;;;;;18.82;100.00;96187.13;4998101;28;20088;-76
2023/07/21 06:47:40;;;;;;;9.90;2.92;;;;;;;18.62;100.00;96185.19;5003925;28;20487;-74
2023/07/21 06:50:06;;;;;;;6.05;2.72;;;;;;;18.59;100.00;96176.94;5014168;28;20034;-74
2023/07/21 06:52:31;;;;;;;12.43;2.80;;;;;;;18.63;100.00;96188.72;5004159;28;20037;-75
2023/07/21 06:54:58;;;;;;;4.10;2.38;;;;;;;18.60;100.00;96175.72;5004188;28;20402;-75
2023/07/21 06:57:24;;;;;;;8.80;2.88;;;;;;;18.40;100.00;96171.06;4998447;28;20518;-74
2023/07/21 06:59:49;;;;;;;7.30;2.75;;;;;;;18.23;100.00;96177.78;5002741;28;20112;-74
2023/07/21 07:02:15;;;;;;;10.23;2.95;;;;;;;18.40;100.00;96168.28;4997320;28;20037;-74
2023/07/21 07:04:41;;;;;;;5.88;3.08;;;;;;;18.55;100.00;96171.50;5004391;28;20482;-74
2023/07/21 07:07:06;;;;;;;6.05;2.63;;;;;;;18.52;100.00;96173.13;5000119;28;20129;-74
2023/07/21 07:09:32;;;;;;;5.50;2.70;;;;;;;18.46;100.00;96182.41;5003236;28;20140;-74
2023/07/21 07:11:57;;;;;;;6.72;2.85;;;;;;;18.40;100.00;96179.38;5002805;28;20038;-75
2023/07/21 07:14:22;;;;;;;4.07;2.58;;;;;;;18.37;100.00;96176.69;4998641;28;20107;-74
2023/07/21 07:16:48;;;;;;;11.80;3.88;;;;;;;18.21;100.00;96166.34;5002041;28;20125;-75
2023/07/21 07:19:13;;;;;;;5.90;3.20;;;;;;;17.53;100.00;96157.41;4997535;28;20415;-75
2023/07/21 07:21:39;;;;;;;5.88;3.13;;;;;;;17.56;100.00;96151.81;5004141;28;20038;-75
2023/07/21 07:24:05;;;;;;;6.63;2.60;;;;;;;17.81;100.00;96153.31;4997414;28;20414;-76
2023/07/21 07:26:31;;;;;;;6.00;3.10;;;;;;;17.28;100.00;96155.13;5002337;28;20042;-74
2023/07/21 07:28:57;;;;;;;5.78;3.10;;;;;;;17.32;100.00;96167.72;5002519;28;20042;-74
2023/07/21 07:31:22;;;;;;;9.88;3.95;;;;;;;16.87;100.00;96157.06;4997878;28;20417;-74
2023/07/21 07:33:47;;;;;;;11.60;3.78;;;;;;;16.81;100.00;96159.47;5002009;28;20048;-74
2023/07/21 07:36:13;;;;;;;7.40;2.70;;;;;;;16.99;100.00;96172.25;4998520;28;20192;-74
2023/07/21 07:38:38;;;;;;;9.98;3.20;;;;;;;17.04;100.00;96169.00;5002227;28;20056;-74
2023/07/21 07:41:06;;;;;;;11.20;3.33;;;;;;;17.20;100.00;96169.09;4990193;28;20166;-74
2023/07/21 07:43:34;;;;;;;9.40;3.20;;;;;;;17.00;100.00;96173.81;4982864;28;20038;-73
2023/07/21 07:46:00;;;;;;;9.10;3.63;;;;;;;17.32;100.00;96181.56;4983249;28;20054;-73
2023/07/21 07:48:25;;;;;;;7.40;2.97;;;;;;;17.53;100.00;96190.66;4978756;28;20064;-74
2023/07/21 07:50:51;;;;;;;8.32;2.78;;;;;;;18.13;100.00;96185.91;5000397;28;20060;-73
2023/07/21 07:53:17;;;;;;;14.95;4.10;;;;;;;19.09;97.89;96192.41;4997722;28;20046;-73
2023/07/21 07:55:44;;;;;;;8.60;3.05;;;;;;;19.84;91.73;96186.84;5002478;28;20052;-74
2023/07/21 07:58:09;;;;;;;5.47;3.00;;;;;;;20.85;85.51;96181.06;4996585;28;20063;-75
2023/07/21 08:00:38;;;;;;;5.50;3.08;;;;;;;21.56;80.70;96170.28;5002855;28;20399;-75
2023/07/21 08:03:07;;;;;;;9.02;2.50;;;;;;;21.35;80.37;96171.03;4999735;28;20120;-75
2023/07/21 08:05:34;;;;;;;;;;;;;;;19.90;86.67;96167.63;5001997;28;20390;-74
2023/07/21 08:08:03;;;;;;;7.78;2.80;;;;;;;20.07;89.50;96160.78;5002858;28;19914;-74
2023/07/21 08:10:32;;;;;;;6.53;2.87;;;;;;;21.31;86.29;96157.22;5000996;28;20048;-75
2023/07/21 08:13:01;;;;;;;9.93;3.13;;;;;;;22.27;75.23;96160.56;5002096;28;20300;-74
2023/07/21 08:15:27;;;;;;;7.38;2.60;;;;;;;20.81;82.38;96168.06;4994461;28;20515;-74
2023/07/21 08:17:53;;;;;;;8.82;3.03;;;;;;;20.30;86.16;96156.91;4997580;28;20038;-75
2023/07/21 08:20:19;;;;;;;4.82;2.70;;;;;;;21.34;81.18;96149.97;4978919;28;20088;-75
2023/07/21 08:22:48;;;;;;;7.60;2.90;;;;;;;22.09;77.17;96152.84;4981023;28;20038;-76
2023/07/21 08:25:15;;;;;;;6.45;3.30;;;;;;;22.35;75.11;96158.25;4978813;28;20101;-75
2023/07/21 08:27:40;;;;;;;5.57;1.95;;;;;;;22.95;73.32;96156.28;5002460;28;20038;-75
2023/07/21 08:30:09;;;;;;;6.43;2.50;;;;;;;24.43;62.82;96168.19;4997408;28;20495;-75
2023/07/21 08:32:41;;;;;;;7.90;3.22;;;;;;;26.05;56.66;96179.78;5002121;28;20065;-74
2023/07/21 08:35:08;;;;;;;5.35;2.67;;;;;;;26.75;51.86;96179.19;5012699;28;20099;-74
2023/07/21 08:37:33;;;;;;;6.60;2.90;;;;;;;26.49;52.21;96188.22;5002111;28;20060;-75
2023/07/21 08:39:59;;;;;;;8.35;4.43;;;;;;;25.74;53.14;96190.16;5001314;28;20498;-76
2023/07/21 08:42:26;;;;;;;10.77;3.80;;;;;;;25.31;55.15;96188.78;4976488;28;20515;-75
2023/07/21 08:44:55;;;;;;;5.90;2.97;;;;;;;25.06;56.42;96192.81;4976884;28;20034;-75
2023/07/21 08:47:21;;;;;;;4.82;2.63;;;;;;;25.11;56.50;96192.94;4979042;28;20506;-74
2023/07/21 08:49:47;;;;;;;5.65;2.90;;;;;;;25.02;56.52;96192.22;4983318;28;20042;-75
2023/07/21 08:52:13;;;;;;;7.45;2.90;;;;;;;24.70;60.05;96184.13;4980098;28;20049;-74
2023/07/21 08:54:39;;;;;;;4.63;2.72;;;;;;;24.81;59.60;96180.78;4996407;28;20094;-74
2023/07/21 08:57:05;;;;;;;9.60;2.88;;;;;;;24.62;59.26;96185.72;4991216;28;20039;-75
2023/07/21 08:59:30;;;;;;;6.32;2.85;;;;;;;25.11;58.12;96186.56;4982105;28;20124;-73
2023/07/21 09:01:55;;;;;;;5.03;2.60;;;;;;;25.76;56.01;96184.09;4982684;28;20045;-75
2023/07/21 09:04:23;;;;;;;5.05;3.20;;;;;;;25.76;55.92;96189.69;4978411;28;20069;-73
2023/07/21 09:06:53;;;;;;;12.10;4.75;;;;;;;25.40;58.40;96188.72;4982626;28;20166;-74
2023/07/21 09:09:23;;;;;;;7.75;3.58;;;;;;;24.58;59.61;96185.88;4977860;28;20050;-74
2023/07/21 09:11:49;;;;;;;8.77;3.85;;;;;;;23.91;62.15;96186.97;4981172;28;20069;-74
2023/07/21 09:14:16;;;;;;;10.32;4.18;;;;;;;24.21;60.55;96183.16;4977553;28;20061;-73
2023/07/21 09:16:43;;;;;;;14.25;4.65;;;;;;;24.74;58.43;96181.94;4983091;28;20073;-73
2023/07/21 09:19:09;;;;;;;9.60;4.20;;;;;;;25.02;57.99;96184.59;4976008;28;20112;-73
2023/07/21 09:21:36;;;;;;;8.88;4.35;;;;;;;25.47;55.94;96188.34;5001411;28;20030;-72
2023/07/21 09:24:03;;;;;;;15.77;4.85;;;;;;;25.18;54.74;96172.97;5000361;28;20050;-74
2023/07/21 09:26:29;;;;;;;10.27;5.05;;;;;;;25.46;56.64;96166.41;5004094;28;20045;-74
2023/07/21 09:28:54;;;;;;;9.45;4.22;;;;;;;25.11;54.78;96166.94;5006197;28;20042;-74
2023/07/21 09:31:33;;;;;;;8.80;3.55;;;;;;;25.35;54.27;96161.34;5001673;28;20042;-74
2023/07/21 09:34:06;;;;;;;3.92;2.90;;;;;;;25.21;52.45;96170.44;5005191;28;20037;-75
2023/07/21 09:36:32;;;;;;;6.45;2.80;;;;;;;25.81;50.07;96172.19;4996482;28;20042;-74
2023/07/21 09:39:00;;;;;;;9.02;4.00;;;;;;;26.10;49.46;96165.84;5004885;28;20042;-73
2023/07/21 09:41:31;;;;;;;6.28;3.30;;;;;;;26.22;48.29;96149.22;4998921;28;20041;-75
2023/07/21 09:43:58;;;;;;;6.28;3.22;;;;;;;26.45;49.05;96165.19;5004018;28;20053;-74
2023/07/21 09:46:24;;;;;;;6.78;3.20;;;;;;;26.39;47.85;96163.53;5000686;28;20684;-74
2023/07/21 09:48:49;;;;;;;6.32;3.40;;;;;;;26.19;48.47;96172.66;5003202;28;20439;-76
2023/07/21 09:51:17;;;;;;;5.80;3.05;;;;;;;26.23;48.07;96168.38;4978829;28;20045;-75
2023/07/21 09:53:43;;;;;;;6.72;2.83;;;;;;;26.61;47.92;96186.38;4985049;28;20038;-75
2023/07/21 09:56:10;;;;;;;5.93;2.75;;;;;;;26.03;47.88;96185.13;4980053;28;20052;-75
2023/07/21 09:58:41;;;;;;;7.32;2.90;;;;;;;25.80;49.06;96186.69;4984311;28;20042;-76
2023/07/21 10:01:09;;;;;;;5.70;2.33;;;;;;;26.46;47.77;96191.97;4980662;28;20050;-76
2023/07/21 10:03:36;;;;;;;4.10;2.58;;;;;;;26.20;47.79;96197.41;5001129;28;20041;-75
2023/07/21 10:06:03;;;;;;;8.98;3.10;;;;;;;25.88;48.25;96190.69;5002447;28;20155;-77
2023/07/21 10:08:32;;;;;;;7.82;2.83;;;;;;;25.86;48.64;96193.19;5001242;28;20045;-75
2023/07/21 10:10:59;;;;;;;5.10;2.70;;;;;;;25.69;48.04;96190.81;5004634;28;20042;-75
2023/07/21 10:13:26;;;;;;;4.53;2.50;;;;;;;26.15;48.10;96200.91;4998194;28;20041;-75
2023/07/21 10:15:52;;;;;;;3.95;2.42;;;;;;;25.55;49.95;96199.97;5004253;28;20085;-73
2023/07/21 10:18:18;;;;;;;5.75;2.55;;;;;;;25.67;49.31;96198.19;4998077;28;20046;-73
2023/07/21 10:20:49;;;;;;;5.53;2.90;;;;;;;25.37;50.42;96190.47;5003901;28;20559;-74
2023/07/21 10:23:38;;;;;;;8.73;3.88;;;;;;;24.53;51.57;96197.72;4997937;28;20053;-74
2023/07/21 10:26:04;;;;;;;7.25;3.22;;;;;;;24.05;54.63;96186.31;5001460;28;20058;-76
2023/07/21 10:28:30;;;;;;;8.25;2.90;;;;;;;24.17;55.12;96193.75;5004494;28;20042;-74
2023/07/21 10:31:24;;;;;;;8.52;2.78;;;;;;;24.17;54.89;96195.78;5003605;28;20049;-74
2023/07/21 10:34:07;;;;;;;7.13;3.65;;;;;;;24.05;55.43;96194.72;5003298;28;20144;-74
2023/07/21 10:36:51;;;;;;;6.18;3.13;;;;;;;24.08;56.18;96196.56;5002523;28;20042;-75
2023/07/21 10:39:22;;;;;;;7.45;3.60;;;;;;;24.07;55.58;96200.59;5015208;28;20049;-73
2023/07/21 10:41:52;;;;;;;7.47;3.35;;;;;;;24.41;55.30;96209.84;5004294;28;20495;-74
2023/07/21 10:44:20;;;;;;;8.35;3.00;;;;;;;24.63;54.92;96211.69;4981208;28;20045;-74
2023/07/21 10:46:48;;;;;;;7.07;3.50;;;;;;;24.10;55.85;96224.09;4999143;28;20038;-74
2023/07/21 10:49:14;;;;;;;7.38;3.30;;;;;;;23.84;57.63;96224.41;4999044;28;20060;-74
2023/07/21 10:51:42;;;;;;;7.47;3.10;;;;;;;23.62;58.86;96225.31;5003501;28;20375;-75
2023/07/21 10:54:08;;;;;;;5.95;3.20;;;;;;;23.48;59.51;96231.53;4999151;28;20457;-75
2023/07/21 10:56:51;;;;;;;11.35;3.78;;;;;;;23.00;63.25;96225.50;5003409;28;20045;-74
2023/07/21 10:59:20;;;;;;;10.25;4.60;;;;;;;22.72;63.73;96228.16;4999317;28;20054;-74
2023/07/21 11:01:49;;;;;;;12.63;5.05;;;;;;;22.63;67.88;96225.34;5003388;28;20034;-75
2023/07/21 11:04:17;;;;;;;8.07;4.32;;;;;;;22.26;70.49;96237.09;5012200;28;20103;-75
2023/07/21 11:06:50;;;;;;;11.65;5.15;;;;;;;21.56;75.50;96233.59;5003559;28;20074;-76
2023/07/21 11:09:17;;;;;;;13.32;5.85;;;;;;;21.81;77.03;96235.53;4978391;28;20595;-74
2023/07/21 11:11:47;;;;;;;10.07;5.10;;;;;;;21.81;78.41;96234.75;5001344;28;20410;-73
2023/07/21 11:14:18;;;;;;;7.95;4.75;;;;;;;21.96;77.77;96230.97;4998968;28;20038;-74
2023/07/21 11:16:49;;;;;;;11.35;5.30;;;;;;;21.94;76.63;96222.28;5003520;28;20089;-73
2023/07/21 11:19:16;;;;;;;10.48;5.38;;;;;;;21.92;76.60;96218.41;4998557;28;20376;-74
2023/07/21 11:21:41;;;;;;;14.50;6.95;;;;;;;21.90;78.63;96215.31;5003109;28;20048;-74
2023/07/21 11:24:08;;;;;;;11.80;5.70;;;;;;;22.23;78.24;96220.47;4999033;28;20041;-75
2023/07/21 11:26:36;;;;;;;10.13;6.70;;;;;;;22.15;78.75;96217.94;5003321;28;20061;-73
2023/07/21 11:29:04;;;;;;;12.13;5.43;;;;;;;22.10;80.53;96215.75;5003845;28;20046;-74